Kezdőlap
METAR-TAF:

METAR-TAF

Repülőterek :

Marshfield, Massachusetts, Amerikai Egyesült Államok

földrajzi szélesség: 42-05-54N, földrajzi hosszúság: 070-40-20W, magasság: 3 m

Jelenlegi meteorológiai megfigyelések

A jelentés 20 perccel ezelõtt készült, 18:15 UTC
Nyugat-délnyugati szél 7 kt széllökések: 19 kt, dél-délnyugati és nyugati között változik
Hőmérséklet 12°C
Páratartalom 28%
Légköri nyomás 1019 hPa
Látótávolság: 16.1 km
Derült ég

METAR: KGHG 231815Z AUTO 24007G19KT 210V280 10SM CLR 12/M06 A3008 RMK AO2

Idő: 13:35 (18:35 UTC)


TAF: hiányzik

Meteorológiai megfigyelések és előrejelzések több, mint 4000 repülőtéren (METAR és TAF jelentéseket).

A térképen piros és sárga pontok jelzik az elérhető meteorológiai állomásokat.

Mozgassa az egeret a pont fölött, hogy megjelenjen az állomás neve.

Azután kattintson az időjárási megfigyelések és előrejelzések megtekintéséhez.

A térkép megváltoztatása: kattintson a fekete keresztel jelölt zöld gombra ráközelítéshez, a vonallal jelölt zöld gombra távolításhoz, vagy a zöld nyilakra a szomszédos térképek eléréséhez.


METAR-TAF: